createdAt,value
2022-12-20T00:00:00.226Z,-10906.59
2022-12-20T00:03:06.291Z,-10908.97
2022-12-20T00:06:14.616Z,-10901.56
2022-12-20T00:09:20.859Z,-10903.94
2022-12-20T00:12:27.553Z,-10900.16
2022-12-20T00:15:34.328Z,-10904.91
2022-12-20T00:18:41.899Z,-10904.63
2022-12-20T00:21:49.898Z,-10898.75
2022-12-20T00:24:56.050Z,-10906.31
2022-12-20T00:28:03.309Z,-10901.13
2022-12-20T00:31:11.364Z,-10904.06
2022-12-20T00:34:17.511Z,-10911.06
2022-12-20T00:37:25.004Z,-10902.81
2022-12-20T00:40:31.355Z,-10903.94
2022-12-20T00:43:38.178Z,-10907.84
2022-12-20T00:46:44.843Z,-10911.06
2022-12-20T00:49:50.989Z,-10903.78
2022-12-20T00:52:58.646Z,-10910.78
2022-12-20T00:56:06.687Z,-10912.63
2022-12-20T00:59:13.179Z,-10901.13
2022-12-20T01:02:19.842Z,-10910.66
2022-12-20T01:05:26.166Z,-10922.28
2022-12-20T01:08:34.475Z,-10903.50
2022-12-20T01:11:41.152Z,-10910.09
2022-12-20T01:14:47.642Z,-10908.56
2022-12-20T01:17:54.082Z,-10907.44
2022-12-20T01:21:04.940Z,-10906.31
2022-12-20T01:24:13.074Z,-10913.47
2022-12-20T01:27:19.487Z,-10907.00
2022-12-20T01:30:25.987Z,-10891.91
2022-12-20T01:33:32.303Z,-10908.56
2022-12-20T01:36:39.602Z,-10912.47
2022-12-20T01:39:47.585Z,-10914.72
2022-12-20T01:42:53.871Z,-10907.84
2022-12-20T01:46:00.595Z,-10913.03
2022-12-20T01:49:12.022Z,-10918.06
2022-12-20T01:52:21.775Z,-10917.09
2022-12-20T01:55:30.228Z,-10921.16
2022-12-20T01:58:39.420Z,-10906.59
2022-12-20T02:01:46.456Z,-10904.63
2022-12-20T02:04:53.036Z,-10899.31
2022-12-20T02:07:59.124Z,-10896.38
2022-12-20T02:11:17.163Z,-10884.06
2022-12-20T02:14:36.939Z,-10894.00
2022-12-20T02:17:52.158Z,-10883.91
2022-12-20T02:21:21.001Z,-10892.31
2022-12-20T02:25:02.228Z,-10903.38
2022-12-20T02:28:26.214Z,-10902.13
2022-12-20T02:31:40.082Z,-10894.28
2022-12-20T02:34:47.164Z,-10890.50
2022-12-20T02:37:55.620Z,-10900.16
2022-12-20T02:41:07.643Z,-10885.03
2022-12-20T02:44:33.565Z,-10868.53
2022-12-20T02:47:47.898Z,-10865.44
2022-12-20T02:50:58.028Z,-10885.31
2022-12-20T02:54:04.622Z,-10887.56
2022-12-20T02:57:15.733Z,-10886.84
2022-12-20T03:00:24.550Z,-10873.56
2022-12-20T03:03:33.637Z,-10870.91
2022-12-20T03:06:40.959Z,-10874.13
2022-12-20T03:09:47.572Z,-10877.47
2022-12-20T03:12:53.997Z,-10867.13
2022-12-20T03:16:00.280Z,-10879.44
2022-12-20T03:19:07.734Z,-10878.88
2022-12-20T03:22:14.183Z,-10873.84
2022-12-20T03:25:20.263Z,-10873.97
2022-12-20T03:28:26.668Z,-10888.69
2022-12-20T03:31:33.108Z,-10885.59
2022-12-20T03:34:41.180Z,-10888.41
2022-12-20T03:37:47.565Z,-10867.28
2022-12-20T03:40:53.822Z,-10847.13
2022-12-20T03:44:00.264Z,-10864.47
2022-12-20T03:47:06.686Z,-10867.69
2022-12-20T03:50:15.435Z,-10861.13
2022-12-20T03:53:21.675Z,-10865.44
2022-12-20T03:56:27.785Z,-10863.22
2022-12-20T03:59:34.238Z,-10870.75
2022-12-20T04:02:41.182Z,-10856.63
2022-12-20T04:05:49.353Z,-10868.38
2022-12-20T04:08:55.814Z,-10846.56
2022-12-20T04:12:03.042Z,-10838.31
2022-12-20T04:15:10.318Z,-10853.13
2022-12-20T04:18:16.617Z,-10850.63
2022-12-20T04:21:26.651Z,-10857.63
2022-12-20T04:24:33.301Z,-10840.28
2022-12-20T04:27:39.510Z,-10829.38
2022-12-20T04:30:45.763Z,-10829.94
2022-12-20T04:33:51.932Z,-10833.84
2022-12-20T04:36:59.471Z,-10824.19
2022-12-20T04:40:06.232Z,-10846.84
2022-12-20T04:43:12.680Z,-10857.75
2022-12-20T04:46:19.882Z,-10866.56
2022-12-20T04:49:26.382Z,-10860.41
2022-12-20T04:52:51.406Z,-10862.09
2022-12-20T04:55:57.582Z,-10857.34
2022-12-20T04:59:04.276Z,-10870.63
2022-12-20T05:02:10.573Z,-10861.53
2022-12-20T05:05:17.106Z,-10845.88
2022-12-20T05:08:25.524Z,-10845.59
2022-12-20T05:11:32.158Z,-10863.78
2022-12-20T05:14:38.688Z,-10871.75
2022-12-20T05:17:44.957Z,-10848.09
2022-12-20T05:21:12.751Z,-10851.19
2022-12-20T05:24:37.794Z,-10827.56
2022-12-20T05:27:44.084Z,-10834.97
2022-12-20T05:30:50.398Z,-10830.63
2022-12-20T05:33:56.605Z,-10836.34
2022-12-20T05:37:03.159Z,-10848.81
2022-12-20T05:40:11.859Z,-10836.09
2022-12-20T05:43:18.843Z,-10852.59
2022-12-20T05:46:25.397Z,-10849.50
2022-12-20T05:49:31.734Z,-10848.38
2022-12-20T05:52:38.245Z,-10851.03
2022-12-20T05:55:48.701Z,-10859.56
2022-12-20T05:58:54.857Z,-10851.75
2022-12-20T06:02:01.383Z,-10833.00
2022-12-20T06:05:08.140Z,-10836.22
2022-12-20T06:08:15.394Z,-10842.38
2022-12-20T06:11:29.645Z,-10847.25
2022-12-20T06:14:36.354Z,-10852.59
2022-12-20T06:18:00.852Z,-10850.91
2022-12-20T06:21:07.593Z,-10856.78
2022-12-20T06:24:14.298Z,-10855.50
2022-12-20T06:27:23.109Z,-10855.09
2022-12-20T06:30:33.843Z,-10859.44
2022-12-20T06:33:40.297Z,-10870.75
2022-12-20T06:36:46.941Z,-10855.66
2022-12-20T06:39:53.240Z,-10850.91
2022-12-20T06:43:00.678Z,-10860.41
2022-12-20T06:46:07.392Z,-10859.00
2022-12-20T06:49:13.880Z,-10849.94
2022-12-20T06:52:19.969Z,-10857.91
2022-12-20T06:55:26.434Z,-10854.25
2022-12-20T06:58:34.375Z,-10875.81
2022-12-20T07:01:41.014Z,-10873.56
2022-12-20T07:04:47.338Z,-10886.44
2022-12-20T07:07:53.681Z,-10885.19
2022-12-20T07:11:05.614Z,-10884.91
2022-12-20T07:14:13.615Z,-10886.44
2022-12-20T07:17:19.919Z,-10883.78
2022-12-20T07:20:26.075Z,-10890.34
2022-12-20T07:23:32.496Z,-10895.97
2022-12-20T07:26:39.091Z,-10898.47
2022-12-20T07:29:46.827Z,-10904.34
2022-12-20T07:32:53.099Z,-10904.06
2022-12-20T07:36:02.444Z,-10904.50
2022-12-20T07:39:09.285Z,-10905.91
2022-12-20T07:42:15.693Z,-10908.97
2022-12-20T07:45:23.471Z,-10915.84
2022-12-20T07:48:29.887Z,-10919.47
2022-12-20T07:51:39.522Z,-10927.88
2022-12-20T07:54:50.752Z,-10917.25
2022-12-20T07:58:03.084Z,-10921.72
2022-12-20T08:01:12.745Z,-10929.56
2022-12-20T08:04:22.328Z,-10936.41
2022-12-20T08:07:29.575Z,-10933.75
2022-12-20T08:10:36.450Z,-10929.28
2022-12-20T08:13:46.538Z,-10934.19
2022-12-20T08:16:55.479Z,-10936.84
2022-12-20T08:20:03.642Z,-10941.03
2022-12-20T08:23:10.039Z,-10945.66
2022-12-20T08:26:16.515Z,-10948.06
2022-12-20T08:29:22.685Z,-10952.81
2022-12-20T08:32:30.713Z,-10935.16
2022-12-20T08:35:37.139Z,-10954.91
2022-12-20T08:38:43.510Z,-10953.66
2022-12-20T08:41:50.546Z,-10943.28
2022-12-20T08:44:56.596Z,-10956.44
2022-12-20T08:48:04.725Z,-10941.03
2022-12-20T08:51:12.702Z,-10962.75
2022-12-20T08:54:19.348Z,-10943.44
2022-12-20T08:57:25.691Z,-10955.06
2022-12-20T09:00:32.023Z,-10965.16
2022-12-20T09:03:40.559Z,-10963.19
2022-12-20T09:06:47.061Z,-10965.97
2022-12-20T09:09:53.174Z,-10966.81
2022-12-20T09:12:59.189Z,-10986.16
2022-12-20T09:16:07.635Z,-10987.97
2022-12-20T09:19:16.040Z,-10982.50
2022-12-20T09:22:22.425Z,-10973.00
2022-12-20T09:25:29.793Z,-10973.81
2022-12-20T09:28:36.457Z,-10985.03
2022-12-20T09:31:42.969Z,-10986.59
2022-12-20T09:34:51.411Z,-10989.81
2022-12-20T09:37:58.332Z,-11002.97
2022-12-20T09:41:08.261Z,-11001.03
2022-12-20T09:44:19.479Z,-11005.50
2022-12-20T09:47:26.638Z,-10994.72
2022-12-20T09:50:44.921Z,-11004.94
2022-12-20T09:54:02.611Z,-10992.91
2022-12-20T09:57:22.048Z,-10998.63
2022-12-20T10:00:28.411Z,-11010.00
2022-12-20T10:03:37.307Z,-11000.59
2022-12-20T10:06:55.739Z,-11010.56
2022-12-20T10:10:23.045Z,-11018.13
2022-12-20T10:13:48.017Z,-11032.28
2022-12-20T10:16:59.930Z,-11031.88
2022-12-20T10:20:23.934Z,-11029.06
2022-12-20T10:23:38.775Z,-11047.31
2022-12-20T10:26:45.034Z,-11046.03
2022-12-20T10:29:53.072Z,-11052.22
2022-12-20T10:33:00.135Z,-11060.78
2022-12-20T10:36:20.663Z,-11057.28
2022-12-20T10:39:42.909Z,-11051.78
2022-12-20T10:42:49.241Z,-11056.56
2022-12-20T10:46:02.084Z,-11059.38
2022-12-20T10:49:31.393Z,-11045.91
2022-12-20T10:52:37.833Z,-11059.53
2022-12-20T10:55:45.671Z,-11048.84
2022-12-20T10:58:57.943Z,-11061.06
2022-12-20T11:02:21.428Z,-11062.03
2022-12-20T11:05:28.213Z,-11078.88
2022-12-20T11:08:40.766Z,-11083.50
2022-12-20T11:12:01.623Z,-11086.03
2022-12-20T11:15:20.555Z,-11074.69
2022-12-20T11:18:46.864Z,-11065.69
2022-12-20T11:22:04.865Z,-11076.50
2022-12-20T11:25:42.019Z,-11064.84
2022-12-20T11:29:07.629Z,-11087.44
2022-12-20T11:32:30.206Z,-11092.22
2022-12-20T11:35:46.806Z,-11070.19
2022-12-20T11:39:00.249Z,-11062.47
2022-12-20T11:42:14.945Z,-11066.66
2022-12-20T11:45:31.531Z,-11067.78
2022-12-20T11:48:53.162Z,-11064.72
2022-12-20T11:52:07.259Z,-11078.03
2022-12-20T11:55:21.822Z,-11087.16
2022-12-20T11:58:33.922Z,-11086.59
2022-12-20T12:01:46.116Z,-11079.44
2022-12-20T12:04:58.118Z,-11088.72
2022-12-20T12:08:13.465Z,-11077.06
2022-12-20T12:15:00.023Z,-11100.50
2022-12-20T12:18:12.998Z,-11097.00
2022-12-20T12:21:24.276Z,-11111.03
2022-12-20T12:24:34.738Z,-11106.69
2022-12-20T12:27:40.987Z,-11104.88
2022-12-20T12:30:50.223Z,-11102.62
2022-12-20T12:34:13.304Z,-11107.97
2022-12-20T12:37:44.622Z,-11105.84
2022-12-20T12:41:31.307Z,-11100.09
2022-12-20T12:44:43.909Z,-11101.22
2022-12-20T12:47:53.822Z,-11119.59
2022-12-20T12:51:03.327Z,-11111.31
2022-12-20T12:54:23.539Z,-11117.66
2022-12-20T12:57:29.569Z,-11107.41
2022-12-20T13:00:52.670Z,-11118.19
2022-12-20T13:04:23.616Z,-11105.28
2022-12-20T13:07:43.893Z,-11100.22
2022-12-20T13:11:02.852Z,-11128.75
2022-12-20T13:14:48.519Z,-11123.53
2022-12-20T13:17:56.194Z,-11121.72
2022-12-20T13:21:33.503Z,-11125.38
2022-12-20T13:24:53.717Z,-11107.69
2022-12-20T13:28:33.099Z,-11127.75
2022-12-20T13:31:39.445Z,-11106.28
2022-12-20T13:34:56.927Z,-11121.72
2022-12-20T13:38:06.215Z,-11093.22
2022-12-20T13:41:31.095Z,-11070.88
2022-12-20T13:44:46.728Z,-11071.44
2022-12-20T13:47:57.418Z,-11073.41
2022-12-20T13:51:04.114Z,-11058.25
2022-12-20T13:54:25.051Z,-11052.63
2022-12-20T13:57:42.219Z,-11055.03
2022-12-20T14:00:49.914Z,-11045.78
2022-12-20T14:03:56.709Z,-11036.94
2022-12-20T14:07:03.985Z,-11039.03
2022-12-20T14:10:20.943Z,-11035.09
2022-12-20T14:13:29.328Z,-11025.84
2022-12-20T14:16:35.708Z,-11031.59
2022-12-20T14:19:41.735Z,-11027.66
2022-12-20T14:23:02.573Z,-11031.31
2022-12-20T14:26:14.313Z,-11026.81
2022-12-20T14:29:27.212Z,-11011.25
2022-12-20T14:32:33.768Z,-11002.56
2022-12-20T14:35:48.476Z,-10998.78
2022-12-20T14:38:55.128Z,-10994.28
2022-12-20T14:42:03.962Z,-10993.88
2022-12-20T14:45:21.480Z,-10984.63
2022-12-20T14:48:28.007Z,-10983.34
2022-12-20T14:51:35.319Z,-10983.91
2022-12-20T14:58:26.053Z,-10990.94
2022-12-20T15:01:38.387Z,-10962.19
2022-12-20T15:04:52.585Z,-10975.22
2022-12-20T15:08:11.707Z,-10976.63
2022-12-20T15:11:23.027Z,-10974.09
2022-12-20T15:14:40.982Z,-10976.91
2022-12-20T15:17:48.851Z,-10980.28
2022-12-20T15:21:03.014Z,-10979.72
2022-12-20T15:24:13.660Z,-10978.59
2022-12-20T15:27:20.291Z,-10967.38
2022-12-20T15:30:26.953Z,-10956.31
2022-12-20T15:33:36.556Z,-10956.59
2022-12-20T15:36:42.904Z,-10955.06
2022-12-20T15:39:48.850Z,-10950.56
2022-12-20T15:42:55.444Z,-10949.88
2022-12-20T15:46:01.746Z,-10954.22
2022-12-20T15:49:13.667Z,-10954.78
2022-12-20T15:52:22.049Z,-10948.31
2022-12-20T15:55:28.274Z,-10949.72
2022-12-20T15:58:34.683Z,-10943.97
2022-12-20T16:01:41.485Z,-10944.69
2022-12-20T16:04:50.629Z,-10942.44
2022-12-20T16:07:57.135Z,-10932.09
2022-12-20T16:11:03.563Z,-10940.19
2022-12-20T16:14:16.754Z,-10939.09
2022-12-20T16:17:23.169Z,-10945.81
2022-12-20T16:20:30.826Z,-10939.63
2022-12-20T16:23:37.137Z,-10936.41
2022-12-20T16:26:43.518Z,-10937.53
2022-12-20T16:29:49.571Z,-10932.09
2022-12-20T16:32:58.907Z,-10932.22
2022-12-20T16:36:07.138Z,-10960.50
2022-12-20T16:39:13.474Z,-10929.69
2022-12-20T16:42:22.402Z,-10931.09
2022-12-20T16:45:30.966Z,-10931.53
2022-12-20T16:48:37.569Z,-10920.31
2022-12-20T16:51:47.209Z,-10924.22
2022-12-20T16:54:53.871Z,-10927.88
2022-12-20T16:58:00.352Z,-10926.06
2022-12-20T17:01:11.353Z,-10922.56
2022-12-20T17:04:21.560Z,-10923.69
2022-12-20T17:07:29.178Z,-10918.22
2022-12-20T17:10:35.312Z,-10907.28
2022-12-20T17:13:41.381Z,-10901.97
2022-12-20T17:16:47.445Z,-10889.38
2022-12-20T17:19:53.855Z,-10894.56
2022-12-20T17:23:01.645Z,-10890.63
2022-12-20T17:26:07.964Z,-10893.44
2022-12-20T17:29:14.910Z,-10907.16
2022-12-20T17:32:23.170Z,-10926.75
2022-12-20T17:35:32.151Z,-10907.72
2022-12-20T17:38:39.673Z,-10912.47
2022-12-20T17:41:46.724Z,-10906.03
2022-12-20T17:44:52.912Z,-10897.06
2022-12-20T17:48:00.140Z,-10892.47
2022-12-20T17:51:16.084Z,-10901.28
2022-12-20T17:54:26.854Z,-10900.44
2022-12-20T17:57:33.595Z,-10904.34
2022-12-20T18:00:39.888Z,-10908.00
2022-12-20T18:04:03.550Z,-10903.94
2022-12-20T18:07:11.096Z,-10898.63
2022-12-20T18:10:18.865Z,-10897.91
2022-12-20T18:13:25.604Z,-10903.78
2022-12-20T18:16:35.142Z,-10899.59
2022-12-20T18:19:44.009Z,-10893.00
2022-12-20T18:22:50.364Z,-10885.31
2022-12-20T18:26:10.329Z,-10890.34
2022-12-20T18:29:16.740Z,-10868.66
2022-12-20T18:32:23.442Z,-10864.47
2022-12-20T18:35:30.472Z,-10877.19
2022-12-20T18:38:37.650Z,-10879.16
2022-12-20T18:41:45.323Z,-10872.03
2022-12-20T18:44:51.884Z,-10872.72
2022-12-20T18:47:58.171Z,-10873.97
2022-12-20T18:51:05.855Z,-10892.03
2022-12-20T18:54:14.123Z,-10879.44
2022-12-20T18:57:21.983Z,-10868.66
2022-12-20T19:00:28.807Z,-10851.03
2022-12-20T19:03:35.354Z,-10863.22
2022-12-20T19:06:42.036Z,-10870.91
2022-12-20T19:09:48.296Z,-10860.97
2022-12-20T19:12:59.376Z,-10862.66
2022-12-20T19:16:10.077Z,-10869.50
2022-12-20T19:19:16.458Z,-10865.59
2022-12-20T19:22:22.698Z,-10868.25
2022-12-20T19:25:28.779Z,-10873.56
2022-12-20T19:32:01.372Z,-10867.69
2022-12-20T19:35:45.059Z,-10875.53
2022-12-20T19:38:34.310Z,-10880.84
2022-12-20T19:41:41.062Z,-10886.44
2022-12-20T19:44:49.034Z,-10886.59
2022-12-20T19:47:55.539Z,-10885.03
2022-12-20T19:51:05.623Z,-10886.84
2022-12-20T19:54:11.847Z,-10881.81
2022-12-20T19:57:17.939Z,-10863.22
2022-12-20T20:00:27.526Z,-10863.06
2022-12-20T20:03:33.858Z,-10840.41
2022-12-20T20:06:40.235Z,-10842.50
2022-12-20T20:09:46.839Z,-10842.38
2022-12-20T20:12:52.982Z,-10839.44
2022-12-20T20:16:02.948Z,-10845.31
2022-12-20T20:19:09.811Z,-10863.78
2022-12-20T20:22:21.011Z,-10867.69
2022-12-20T20:25:29.079Z,-10860.00
2022-12-20T20:28:43.741Z,-10845.59
2022-12-20T20:31:52.370Z,-10847.41
2022-12-20T20:34:58.597Z,-10853.28
2022-12-20T20:38:04.907Z,-10866.56
2022-12-20T20:41:11.019Z,-10861.13
2022-12-20T20:44:17.577Z,-10861.25
2022-12-20T20:47:25.507Z,-10855.09
2022-12-20T20:50:32.209Z,-10862.66
2022-12-20T21:04:14.460Z,-10850.06
2022-12-20T21:07:20.748Z,-10837.19
2022-12-20T21:10:27.291Z,-10857.06
2022-12-20T21:13:34.169Z,-10847.97
2022-12-20T21:16:41.829Z,-10837.19
2022-12-20T21:19:49.575Z,-10841.25
2022-12-20T21:22:57.464Z,-10836.09
2022-12-20T21:26:04.068Z,-10856.78
2022-12-20T21:29:10.716Z,-10869.66
2022-12-20T21:32:17.020Z,-10857.75
2022-12-20T21:35:24.891Z,-10845.59
2022-12-20T21:38:31.534Z,-10843.34
2022-12-20T21:41:37.542Z,-10842.78
2022-12-20T21:44:43.852Z,-10834.41
2022-12-20T21:47:50.191Z,-10831.75
2022-12-20T21:51:02.754Z,-10823.22
2022-12-20T21:54:09.138Z,-10840.28
2022-12-20T21:57:15.428Z,-10823.78
2022-12-20T22:00:23.213Z,-10823.34
2022-12-20T22:03:29.590Z,-10841.38
2022-12-20T22:06:37.129Z,-10852.72
2022-12-20T22:09:43.538Z,-10855.66
2022-12-20T22:12:49.812Z,-10857.63
2022-12-20T22:15:55.945Z,-10846.72
2022-12-20T22:19:03.680Z,-10828.53
2022-12-20T22:22:11.646Z,-10838.19
2022-12-20T22:25:17.897Z,-10854.41
2022-12-20T22:28:24.133Z,-10850.06
2022-12-20T22:31:30.678Z,-10850.34
2022-12-20T22:34:36.584Z,-10846.00
2022-12-20T22:37:44.191Z,-10836.78
2022-12-20T22:40:50.398Z,-10850.34
2022-12-20T22:43:58.435Z,-10831.88
2022-12-20T22:47:04.447Z,-10817.75
2022-12-20T22:50:11.770Z,-10816.22
2022-12-20T22:53:19.293Z,-10812.59
2022-12-20T22:56:25.723Z,-10814.28
2022-12-20T22:59:32.657Z,-10837.47
2022-12-20T23:02:39.030Z,-10841.81
2022-12-20T23:05:53.481Z,-10814.81
2022-12-20T23:09:00.841Z,-10821.81
2022-12-20T23:12:24.368Z,-10826.72
2022-12-20T23:15:42.920Z,-10822.81
2022-12-20T23:18:48.977Z,-10837.75
2022-12-20T23:22:12.643Z,-10832.44
2022-12-20T23:25:21.725Z,-10833.69
2022-12-20T23:28:28.074Z,-10810.78
2022-12-20T23:31:35.495Z,-10811.75
2022-12-20T23:34:41.866Z,-10833.56
2022-12-20T23:37:48.900Z,-10834.13
2022-12-20T23:40:56.781Z,-10835.25
2022-12-20T23:44:05.067Z,-10827.41
2022-12-20T23:47:17.137Z,-10820.69
2022-12-20T23:50:24.908Z,-10811.75
2022-12-20T23:53:31.438Z,-10820.16
2022-12-20T23:56:39.261Z,-10836.91
2022-12-20T23:59:45.746Z,-10826.00
